createdAt,value
2016-12-24T00:00:28.078Z,24.4
2016-12-24T00:01:28.009Z,24.37
2016-12-24T00:02:27.957Z,24.4
2016-12-24T00:03:27.962Z,24.39
2016-12-24T00:04:27.660Z,24.42
2016-12-24T00:05:27.612Z,24.43
2016-12-24T00:06:27.618Z,24.34
2016-12-24T00:07:27.362Z,24.35
2016-12-24T00:08:27.946Z,24.37
2016-12-24T00:09:29.050Z,24.39
2016-12-24T00:10:27.959Z,24.35
2016-12-24T00:11:27.443Z,24.34
2016-12-24T00:12:27.658Z,24.31
2016-12-24T00:13:27.671Z,24.34
2016-12-24T00:14:27.362Z,24.39
2016-12-24T00:15:27.995Z,24.31
2016-12-24T00:16:27.687Z,24.35
2016-12-24T00:17:28.060Z,24.31
2016-12-24T00:18:27.391Z,24.31
2016-12-24T00:19:27.714Z,24.27
2016-12-24T00:20:28.068Z,24.25
2016-12-24T00:21:27.411Z,24.27
2016-12-24T00:22:27.779Z,24.31
2016-12-24T00:23:27.736Z,24.31
2016-12-24T00:24:28.105Z,24.25
2016-12-24T00:25:27.800Z,24.28
2016-12-24T00:26:28.122Z,24.31
2016-12-24T00:27:27.498Z,24.34
2016-12-24T00:28:28.106Z,24.35
2016-12-24T00:29:27.465Z,24.28
2016-12-24T00:30:28.093Z,24.31
2016-12-24T00:31:28.338Z,24.3
2016-12-24T00:32:27.945Z,24.32
2016-12-24T00:33:29.625Z,24.31
2016-12-24T00:34:28.124Z,24.37
2016-12-24T00:35:27.844Z,24.31
2016-12-24T00:36:27.516Z,24.31
2016-12-24T00:37:27.879Z,24.31
2016-12-24T00:38:27.836Z,24.27
2016-12-24T00:39:27.841Z,24.25
2016-12-24T00:40:28.267Z,24.31
2016-12-24T00:41:27.905Z,24.25
2016-12-24T00:42:28.177Z,24.34
2016-12-24T00:43:27.867Z,24.24
2016-12-24T00:44:28.736Z,24.3
2016-12-24T00:45:28.207Z,24.28
2016-12-24T00:46:27.987Z,24.3
2016-12-24T00:47:27.686Z,24.31
2016-12-24T00:48:28.216Z,24.3
2016-12-24T00:49:27.599Z,24.3
2016-12-24T00:50:27.606Z,24.31
2016-12-24T00:51:27.689Z,24.39
2016-12-24T00:52:27.932Z,24.34
2016-12-24T00:53:27.944Z,24.35
2016-12-24T00:54:27.943Z,24.3
2016-12-24T00:55:29.153Z,24.32
2016-12-24T00:56:27.698Z,24.35
2016-12-24T00:57:27.652Z,24.37
2016-12-24T00:58:28.020Z,24.35
2016-12-24T00:59:28.291Z,24.39
2016-12-24T01:00:28.299Z,24.46
2016-12-24T01:01:27.727Z,24.35
2016-12-24T01:02:27.686Z,24.42
2016-12-24T01:03:28.002Z,24.43
2016-12-24T01:04:28.060Z,24.37
2016-12-24T01:05:28.018Z,24.35
2016-12-24T01:06:29.442Z,24.32
2016-12-24T01:07:27.720Z,24.32
2016-12-24T01:08:28.352Z,24.31
2016-12-24T01:09:28.360Z,24.39
2016-12-24T01:10:28.102Z,24.34
2016-12-24T01:11:28.409Z,24.28
2016-12-24T01:12:28.379Z,24.3
2016-12-24T01:13:28.440Z,24.35
2016-12-24T01:14:28.080Z,24.32
2016-12-24T01:15:27.772Z,24.3
2016-12-24T01:16:28.099Z,24.24
2016-12-24T01:17:29.413Z,24.42
2016-12-24T01:18:28.470Z,24.31
2016-12-24T01:19:28.480Z,24.39
2016-12-24T01:20:28.437Z,24.35
2016-12-24T01:21:28.226Z,24.4
2016-12-24T01:22:28.136Z,24.25
2016-12-24T01:23:28.502Z,24.3
2016-12-24T01:24:28.149Z,24.4
2016-12-24T01:25:28.153Z,24.34
2016-12-24T01:26:28.187Z,24.3
2016-12-24T01:27:28.478Z,24.31
2016-12-24T01:28:28.911Z,24.3
2016-12-24T01:29:28.496Z,24.31
2016-12-24T01:30:28.500Z,24.3
2016-12-24T01:31:28.194Z,24.31
2016-12-24T01:32:27.891Z,24.25
2016-12-24T01:33:28.571Z,24.34
2016-12-24T01:34:27.999Z,24.22
2016-12-24T01:35:28.220Z,24.34
2016-12-24T01:36:28.277Z,24.35
2016-12-24T01:37:28.235Z,24.31
2016-12-24T01:38:28.291Z,24.37
2016-12-24T01:39:29.012Z,24.32
2016-12-24T01:40:28.255Z,24.34
2016-12-24T01:41:28.264Z,24.27
2016-12-24T01:42:28.579Z,24.34
2016-12-24T01:43:29.192Z,24.31
2016-12-24T01:44:28.332Z,24.22
2016-12-24T01:45:28.652Z,24.3
2016-12-24T01:46:28.712Z,24.28
2016-12-24T01:47:28.667Z,24.34
2016-12-24T01:48:28.364Z,24.25
2016-12-24T01:49:28.003Z,24.28
2016-12-24T01:50:28.632Z,24.25
2016-12-24T01:51:28.428Z,24.21
2016-12-24T01:52:28.434Z,24.22
2016-12-24T01:53:28.341Z,24.3
2016-12-24T01:54:29.402Z,24.28
2016-12-24T01:55:28.097Z,24.21
2016-12-24T01:56:28.361Z,24.25
2016-12-24T01:57:28.416Z,24.2
2016-12-24T01:58:28.062Z,24.22
2016-12-24T01:59:28.743Z,24.22
2016-12-24T02:00:28.391Z,24.25
2016-12-24T02:01:28.724Z,24.21
2016-12-24T02:02:28.764Z,24.22
2016-12-24T02:03:30.444Z,24.18
2016-12-24T02:04:28.782Z,24.22
2016-12-24T02:05:28.723Z,24.22
2016-12-24T02:06:28.464Z,24.21
2016-12-24T02:07:28.434Z,24.22
2016-12-24T02:08:28.437Z,24.28
2016-12-24T02:09:28.808Z,24.28
2016-12-24T02:10:28.812Z,24.27
2016-12-24T02:11:28.515Z,24.21
2016-12-24T02:12:28.755Z,24.24
2016-12-24T02:13:28.161Z,24.21
2016-12-24T02:14:28.478Z,24.28
2016-12-24T02:15:28.586Z,24.25
2016-12-24T02:16:29.193Z,24.25
2016-12-24T02:17:28.553Z,24.22
2016-12-24T02:18:28.555Z,24.25
2016-12-24T02:19:28.824Z,24.25
2016-12-24T02:20:28.519Z,24.13
2016-12-24T02:21:28.892Z,24.22
2016-12-24T02:22:28.531Z,24.25
2016-12-24T02:23:28.973Z,24.24
2016-12-24T02:24:28.542Z,24.2
2016-12-24T02:25:29.390Z,24.22
2016-12-24T02:26:28.870Z,24.24
2016-12-24T02:27:28.918Z,24.24
2016-12-24T02:28:28.882Z,24.18
2016-12-24T02:29:29.654Z,24.22
2016-12-24T02:30:28.898Z,24.22
2016-12-24T02:31:28.911Z,24.21
2016-12-24T02:32:28.648Z,24.13
2016-12-24T02:33:28.344Z,24.2
2016-12-24T02:34:29.023Z,24.15
2016-12-24T02:35:28.674Z,24.21
2016-12-24T02:36:28.941Z,24.21
2016-12-24T02:37:28.945Z,24.13
2016-12-24T02:38:29.038Z,24.13
2016-12-24T02:39:29.007Z,24.12
2016-12-24T02:40:30.507Z,24.1
2016-12-24T02:41:29.021Z,24.09
2016-12-24T02:42:28.669Z,24.16
2016-12-24T02:43:29.066Z,24.06
2016-12-24T02:44:28.361Z,24.12
2016-12-24T02:45:28.373Z,24.09
2016-12-24T02:46:28.742Z,24.08
2016-12-24T02:47:28.694Z,24.13
2016-12-24T02:48:28.707Z,24.08
2016-12-24T02:49:29.110Z,24.1
2016-12-24T02:50:28.716Z,24.06
2016-12-24T02:51:30.015Z,24
2016-12-24T02:52:29.096Z,24.02
2016-12-24T02:53:28.790Z,23.95
2016-12-24T02:54:28.483Z,24.06
2016-12-24T02:55:28.801Z,24
2016-12-24T02:56:28.789Z,23.95
2016-12-24T02:57:28.763Z,23.98
2016-12-24T02:58:28.824Z,23.98
2016-12-24T02:59:29.089Z,24
2016-12-24T03:00:29.085Z,24.06
2016-12-24T03:01:28.841Z,24.06
2016-12-24T03:02:28.797Z,23.97
2016-12-24T03:03:28.802Z,23.97
2016-12-24T03:04:29.171Z,24.02
2016-12-24T03:05:28.817Z,24.05
2016-12-24T03:06:28.826Z,24.03
2016-12-24T03:07:28.566Z,24.05
2016-12-24T03:08:28.938Z,23.98
2016-12-24T03:09:28.944Z,23.98
2016-12-24T03:10:28.534Z,23.95
2016-12-24T03:11:29.358Z,23.94
2016-12-24T03:12:28.961Z,23.94
2016-12-24T03:13:28.925Z,23.95
2016-12-24T03:14:28.876Z,23.98
2016-12-24T03:15:29.471Z,23.94
2016-12-24T03:16:29.238Z,23.93
2016-12-24T03:17:29.307Z,23.94
2016-12-24T03:18:28.957Z,23.93
2016-12-24T03:19:28.907Z,23.97
2016-12-24T03:20:29.279Z,24.03
2016-12-24T03:21:28.922Z,24.02
2016-12-24T03:22:28.980Z,24.05
2016-12-24T03:23:28.993Z,23.94
2016-12-24T03:24:30.506Z,23.95
2016-12-24T03:25:28.639Z,23.98
2016-12-24T03:26:29.207Z,24.03
2016-12-24T03:27:29.277Z,24.03
2016-12-24T03:28:29.023Z,24.05
2016-12-24T03:29:29.027Z,24.03
2016-12-24T03:30:28.717Z,23.97
2016-12-24T03:31:28.677Z,23.98
2016-12-24T03:32:29.098Z,23.97
2016-12-24T03:33:29.370Z,23.95
2016-12-24T03:34:29.375Z,24.02
2016-12-24T03:35:30.331Z,23.95
2016-12-24T03:36:29.022Z,23.95
2016-12-24T03:37:29.219Z,23.95
2016-12-24T03:38:29.348Z,23.97
2016-12-24T03:39:29.412Z,23.87
2016-12-24T03:40:29.050Z,23.87
2016-12-24T03:41:29.106Z,23.98
2016-12-24T03:42:29.061Z,23.94
2016-12-24T03:43:29.380Z,23.91
2016-12-24T03:44:29.179Z,23.88
2016-12-24T03:45:29.107Z,23.88
2016-12-24T03:46:30.103Z,23.79
2016-12-24T03:47:28.828Z,23.84
2016-12-24T03:48:28.789Z,23.85
2016-12-24T03:49:29.428Z,23.95
2016-12-24T03:50:28.857Z,23.97
2016-12-24T03:51:29.125Z,23.9
2016-12-24T03:52:29.542Z,23.95
2016-12-24T03:53:28.826Z,23.84
2016-12-24T03:54:29.196Z,23.93
2016-12-24T03:55:29.561Z,23.94
2016-12-24T03:56:29.206Z,23.91
2016-12-24T03:57:30.382Z,23.94
2016-12-24T03:58:44.044Z,23.88
2016-12-24T03:59:29.167Z,23.88
2016-12-24T04:00:29.492Z,23.83
2016-12-24T04:01:29.212Z,23.9
2016-12-24T04:02:28.886Z,23.88
2016-12-24T04:03:29.204Z,23.9
2016-12-24T04:04:29.258Z,23.88
2016-12-24T04:05:29.213Z,23.85
2016-12-24T04:06:29.590Z,23.83
2016-12-24T04:07:29.545Z,23.79
2016-12-24T04:08:29.781Z,23.91
2016-12-24T04:09:29.245Z,23.85
2016-12-24T04:10:29.558Z,23.87
2016-12-24T04:11:28.994Z,23.83
2016-12-24T04:12:30.071Z,23.87
2016-12-24T04:13:29.269Z,23.79
2016-12-24T04:14:28.959Z,23.85
2016-12-24T04:15:29.383Z,23.87
2016-12-24T04:16:29.598Z,23.88
2016-12-24T04:17:29.296Z,23.9
2016-12-24T04:18:29.039Z,23.87
2016-12-24T04:19:29.306Z,23.87
2016-12-24T04:20:29.679Z,23.87
2016-12-24T04:21:29.870Z,23.85
2016-12-24T04:22:29.013Z,23.94
2016-12-24T04:23:30.447Z,23.88
2016-12-24T04:24:29.656Z,23.9
2016-12-24T04:25:29.349Z,23.87
2016-12-24T04:26:29.665Z,23.88
2016-12-24T04:27:29.361Z,23.91
2016-12-24T04:28:29.365Z,23.93
2016-12-24T04:29:29.422Z,23.85
2016-12-24T04:30:29.382Z,23.85
2016-12-24T04:31:29.441Z,23.83
2016-12-24T04:32:29.706Z,23.84
2016-12-24T04:33:29.087Z,23.93
2016-12-24T04:34:30.220Z,23.88
2016-12-24T04:35:29.410Z,23.84
2016-12-24T04:36:29.518Z,23.93
2016-12-24T04:37:29.430Z,23.87
2016-12-24T04:38:29.459Z,23.9
2016-12-24T04:39:29.440Z,23.76
2016-12-24T04:40:29.808Z,23.84
2016-12-24T04:41:29.497Z,23.9
2016-12-24T04:42:29.509Z,23.93
2016-12-24T04:43:29.463Z,23.87
2016-12-24T04:44:29.468Z,23.84
2016-12-24T04:45:30.264Z,23.91
2016-12-24T04:46:29.844Z,23.85
2016-12-24T04:47:29.541Z,23.94
2016-12-24T04:48:29.807Z,23.87
2016-12-24T04:49:29.502Z,23.85
2016-12-24T04:50:30.203Z,23.85
2016-12-24T04:51:29.514Z,23.76
2016-12-24T04:52:29.523Z,23.87
2016-12-24T04:53:29.582Z,23.88
2016-12-24T04:54:30.953Z,23.78
2016-12-24T04:55:29.595Z,23.8
2016-12-24T04:56:29.599Z,23.9
2016-12-24T04:57:29.553Z,23.91
2016-12-24T04:58:31.041Z,23.88
2016-12-24T04:59:29.303Z,23.88
2016-12-24T05:00:29.263Z,23.84
2016-12-24T05:01:29.896Z,23.91
2016-12-24T05:02:29.378Z,23.84
2016-12-24T05:03:29.594Z,23.85
2016-12-24T05:04:30.016Z,23.91
2016-12-24T05:05:29.296Z,23.9
2016-12-24T05:06:29.614Z,23.91
2016-12-24T05:07:29.983Z,23.83
2016-12-24T05:08:29.680Z,23.84
2016-12-24T05:09:31.141Z,23.85
2016-12-24T05:10:29.955Z,23.84
2016-12-24T05:11:29.958Z,23.84
2016-12-24T05:12:29.968Z,23.84
2016-12-24T05:13:29.396Z,23.79
2016-12-24T05:14:29.665Z,23.8
2016-12-24T05:15:29.679Z,23.85
2016-12-24T05:16:29.680Z,23.83
2016-12-24T05:17:29.687Z,23.9
2016-12-24T05:18:29.696Z,23.84
2016-12-24T05:19:30.015Z,23.8
2016-12-24T05:20:30.918Z,23.84
2016-12-24T05:21:29.716Z,23.79
2016-12-24T05:22:30.084Z,23.84
2016-12-24T05:23:30.091Z,23.84
2016-12-24T05:24:29.521Z,23.8
2016-12-24T05:25:29.740Z,23.78
2016-12-24T05:26:29.798Z,23.79
2016-12-24T05:27:30.112Z,23.8
2016-12-24T05:28:29.808Z,23.78
2016-12-24T05:29:29.867Z,23.72
2016-12-24T05:30:29.769Z,23.8
2016-12-24T05:31:31.322Z,23.87
2016-12-24T05:32:29.521Z,23.87
2016-12-24T05:33:30.153Z,23.88
2016-12-24T05:34:29.798Z,23.76
2016-12-24T05:35:30.156Z,23.79
2016-12-24T05:36:30.127Z,23.79
2016-12-24T05:37:30.131Z,23.78
2016-12-24T05:38:30.137Z,23.8
2016-12-24T05:39:30.145Z,23.8
2016-12-24T05:40:29.579Z,23.85
2016-12-24T05:41:30.209Z,23.78
2016-12-24T05:42:30.862Z,23.78
2016-12-24T05:43:29.852Z,23.79
2016-12-24T05:44:29.600Z,23.76
2016-12-24T05:45:29.920Z,23.78
2016-12-24T05:46:29.928Z,23.85
2016-12-24T05:47:29.879Z,23.75
2016-12-24T05:48:29.575Z,23.79
2016-12-24T05:49:30.259Z,23.84
2016-12-24T05:50:30.002Z,23.83
2016-12-24T05:51:29.906Z,23.83
2016-12-24T05:52:29.654Z,23.76
2016-12-24T05:53:30.762Z,23.8
2016-12-24T05:54:30.292Z,23.8
2016-12-24T05:55:30.037Z,23.83
2016-12-24T05:56:30.255Z,23.78
2016-12-24T05:57:29.947Z,23.79
2016-12-24T05:58:30.665Z,23.76
2016-12-24T05:59:29.650Z,23.76
2016-12-24T06:00:29.653Z,23.83
2016-12-24T06:01:30.334Z,23.76
2016-12-24T06:02:29.717Z,23.8
2016-12-24T06:03:30.037Z,23.68
2016-12-24T06:04:30.894Z,23.68
2016-12-24T06:05:30.002Z,23.76
2016-12-24T06:06:30.517Z,23.76
2016-12-24T06:07:30.114Z,23.8
2016-12-24T06:08:30.021Z,23.7
2016-12-24T06:09:30.073Z,23.78
2016-12-24T06:10:30.029Z,23.69
2016-12-24T06:11:30.351Z,23.68
2016-12-24T06:12:30.046Z,23.7
2016-12-24T06:13:30.415Z,23.69
2016-12-24T06:14:29.744Z,23.79
2016-12-24T06:15:30.666Z,23.76
2016-12-24T06:16:30.068Z,23.7
2016-12-24T06:17:32.010Z,23.63
2016-12-24T06:18:30.085Z,23.69
2016-12-24T06:19:30.192Z,23.68
2016-12-24T06:20:30.095Z,23.78
2016-12-24T06:21:30.468Z,23.79
2016-12-24T06:22:30.112Z,23.73
2016-12-24T06:23:30.141Z,23.69
2016-12-24T06:24:30.172Z,23.73
2016-12-24T06:25:30.127Z,23.78
2016-12-24T06:26:30.143Z,23.76
2016-12-24T06:27:30.504Z,23.61
2016-12-24T06:28:31.275Z,23.73
2016-12-24T06:29:30.471Z,23.7
2016-12-24T06:30:30.647Z,23.73
2016-12-24T06:31:30.170Z,23.72
2016-12-24T06:32:29.869Z,23.69
2016-12-24T06:33:30.178Z,23.69
2016-12-24T06:34:30.551Z,23.69
2016-12-24T06:35:30.239Z,23.68
2016-12-24T06:36:29.889Z,23.66
2016-12-24T06:37:30.520Z,23.69
2016-12-24T06:38:30.214Z,23.69
2016-12-24T06:39:31.585Z,23.69
2016-12-24T06:40:30.379Z,23.75
2016-12-24T06:41:30.120Z,23.68
2016-12-24T06:42:30.240Z,23.75
2016-12-24T06:43:30.556Z,23.63
2016-12-24T06:44:29.938Z,23.73
2016-12-24T06:45:30.308Z,23.68
2016-12-24T06:46:30.005Z,23.73
2016-12-24T06:47:30.326Z,23.76
2016-12-24T06:48:30.589Z,23.69
2016-12-24T06:49:30.288Z,23.57
2016-12-24T06:50:31.154Z,23.61
2016-12-24T06:51:30.297Z,23.66
2016-12-24T06:52:30.720Z,23.61
2016-12-24T06:53:30.310Z,23.7
2016-12-24T06:54:30.001Z,23.58
2016-12-24T06:55:30.325Z,23.66
2016-12-24T06:56:30.328Z,23.55
2016-12-24T06:57:30.337Z,23.69
2016-12-24T06:58:30.346Z,23.65
2016-12-24T06:59:30.824Z,23.63
2016-12-24T07:00:30.404Z,23.61
2016-12-24T07:01:32.037Z,23.61
2016-12-24T07:02:30.415Z,23.76
2016-12-24T07:03:30.785Z,23.63
2016-12-24T07:04:30.381Z,23.65
2016-12-24T07:05:30.706Z,23.63
2016-12-24T07:06:30.085Z,23.69
2016-12-24T07:07:30.451Z,23.65
2016-12-24T07:08:30.460Z,23.61
2016-12-24T07:09:30.727Z,23.54
2016-12-24T07:10:30.424Z,23.75
2016-12-24T07:11:30.116Z,23.6
2016-12-24T07:12:31.831Z,23.54
2016-12-24T07:13:30.489Z,23.61
2016-12-24T07:14:30.750Z,23.7
2016-12-24T07:15:30.451Z,23.61
2016-12-24T07:16:30.774Z,23.69
2016-12-24T07:17:30.883Z,23.76
2016-12-24T07:18:30.471Z,23.73
2016-12-24T07:19:30.479Z,23.61
2016-12-24T07:20:30.491Z,23.79
2016-12-24T07:21:30.803Z,23.69
2016-12-24T07:22:30.867Z,23.6
2016-12-24T07:23:31.454Z,23.63
2016-12-24T07:24:30.873Z,23.68
2016-12-24T07:25:30.456Z,23.63
2016-12-24T07:26:30.573Z,23.58
2016-12-24T07:27:30.319Z,23.6
2016-12-24T07:28:30.536Z,23.79
2016-12-24T07:29:30.907Z,23.63
2016-12-24T07:30:30.237Z,23.63
2016-12-24T07:31:30.559Z,23.63
2016-12-24T07:32:30.611Z,23.65
2016-12-24T07:33:30.932Z,23.7
2016-12-24T07:34:30.625Z,23.78
2016-12-24T07:35:30.632Z,23.94
2016-12-24T07:36:30.694Z,23.95
2016-12-24T07:37:30.912Z,24.02
2016-12-24T07:38:32.040Z,24.24
2016-12-24T07:39:30.607Z,24.34
2016-12-24T07:40:30.355Z,24.47
2016-12-24T07:41:31.032Z,24.55
2016-12-24T07:42:30.365Z,24.77
2016-12-24T07:43:31.011Z,24.91
2016-12-24T07:44:30.639Z,24.93
2016-12-24T07:45:30.648Z,25.06
2016-12-24T07:46:30.654Z,25.03
2016-12-24T07:47:31.275Z,25.14
2016-12-24T07:48:30.718Z,25.14
2016-12-24T07:49:31.474Z,25.36
2016-12-24T07:50:30.729Z,25.43
2016-12-24T07:51:31.049Z,25.36
2016-12-24T07:52:30.378Z,25.43
2016-12-24T07:53:30.700Z,25.46
2016-12-24T07:54:30.705Z,25.6
2016-12-24T07:55:31.073Z,25.62
2016-12-24T07:56:30.762Z,25.67
2016-12-24T07:57:30.459Z,25.73
2016-12-24T07:59:00.176Z,25.83
2016-12-24T07:59:30.792Z,25.77
2016-12-24T08:00:31.596Z,25.76
2016-12-24T08:01:30.749Z,25.87
2016-12-24T08:02:30.494Z,25.87
2016-12-24T08:03:30.812Z,25.99
2016-12-24T08:04:31.137Z,25.94
2016-12-24T08:05:30.824Z,25.91
2016-12-24T08:06:31.198Z,25.92
2016-12-24T08:07:30.789Z,25.98
2016-12-24T08:08:30.797Z,26.06
2016-12-24T08:09:30.490Z,26.01
2016-12-24T08:10:31.174Z,26.02
2016-12-24T08:11:31.681Z,26.02
2016-12-24T08:12:30.821Z,26.1
2016-12-24T08:13:30.881Z,26.09
2016-12-24T08:14:31.200Z,26.09
2016-12-24T08:15:30.581Z,26.15
2016-12-24T08:16:30.585Z,26.06
2016-12-24T08:17:30.857Z,26.1
2016-12-24T08:18:31.208Z,26.12
2016-12-24T08:19:30.923Z,26.18
2016-12-24T08:20:30.924Z,26.18
2016-12-24T08:21:30.884Z,26.18
2016-12-24T08:22:31.805Z,26.2
2016-12-24T08:23:30.579Z,26.2
2016-12-24T08:24:30.950Z,26.15
2016-12-24T08:25:30.911Z,26.17
2016-12-24T08:26:30.918Z,26.15
2016-12-24T08:27:31.022Z,26.12
2016-12-24T08:28:30.981Z,26.17
2016-12-24T08:29:30.676Z,26.17
2016-12-24T08:30:30.994Z,26.26
2016-12-24T08:31:31.314Z,26.18
2016-12-24T08:32:30.957Z,26.13
2016-12-24T08:33:31.454Z,26.21
2016-12-24T08:34:30.973Z,26.13
2016-12-24T08:35:31.289Z,26.21
2016-12-24T08:36:31.362Z,26.18
2016-12-24T08:37:31.355Z,26.09
2016-12-24T08:38:30.995Z,26.17
2016-12-24T08:39:31.010Z,26.21
2016-12-24T08:40:31.013Z,26.1
2016-12-24T08:41:31.409Z,26.17
2016-12-24T08:42:31.440Z,26.28
2016-12-24T08:43:31.034Z,26.2
2016-12-24T08:44:31.690Z,26.2
2016-12-24T08:45:31.412Z,26.32
2016-12-24T08:46:31.055Z,26.18
2016-12-24T08:47:31.368Z,26.21
2016-12-24T08:48:30.754Z,26.13
2016-12-24T08:49:31.076Z,26.17
2016-12-24T08:50:31.132Z,26.29
2016-12-24T08:51:31.404Z,26.23
2016-12-24T08:52:31.145Z,26.2
2016-12-24T08:53:31.445Z,26.3
2016-12-24T08:54:31.159Z,26.28
2016-12-24T08:55:31.435Z,26.21
2016-12-24T08:56:31.437Z,26.21
2016-12-24T08:57:30.866Z,26.26
2016-12-24T08:58:31.137Z,26.21
2016-12-24T08:59:31.556Z,26.35
2016-12-24T09:00:30.890Z,26.4
2016-12-24T09:01:31.156Z,26.35
2016-12-24T09:02:31.263Z,26.36
2016-12-24T09:03:30.862Z,26.29
2016-12-24T09:04:31.177Z,26.25
2016-12-24T09:05:31.188Z,26.25
2016-12-24T09:06:31.503Z,26.32
2016-12-24T09:07:30.939Z,26.33
2016-12-24T09:08:32.707Z,26.32
2016-12-24T09:09:31.214Z,26.35
2016-12-24T09:10:31.219Z,26.33
2016-12-24T09:11:30.914Z,26.32
2016-12-24T09:12:31.234Z,26.32
2016-12-24T09:13:31.295Z,26.44
2016-12-24T09:14:31.660Z,26.37
2016-12-24T09:15:31.253Z,26.44
2016-12-24T09:16:31.582Z,26.33
2016-12-24T09:17:31.582Z,26.4
2016-12-24T09:18:31.643Z,26.33
2016-12-24T09:19:32.133Z,26.36
2016-12-24T09:20:31.705Z,26.3
2016-12-24T09:21:31.349Z,26.4
2016-12-24T09:22:30.988Z,26.37
2016-12-24T09:23:31.624Z,26.37
2016-12-24T09:24:31.633Z,26.37
2016-12-24T09:25:32.332Z,26.37
2016-12-24T09:26:31.430Z,26.33
2016-12-24T09:27:31.703Z,26.47
2016-12-24T09:28:31.659Z,26.45
2016-12-24T09:29:31.404Z,26.44
2016-12-24T09:30:32.147Z,26.36
2016-12-24T09:31:31.374Z,26.39
2016-12-24T09:32:31.375Z,26.36
2016-12-24T09:33:31.692Z,26.39
2016-12-24T09:34:31.756Z,26.43
2016-12-24T09:35:31.443Z,26.37
2016-12-24T09:36:31.402Z,26.43
2016-12-24T09:37:31.405Z,26.45
2016-12-24T09:38:31.780Z,26.44
2016-12-24T09:39:31.431Z,26.5
2016-12-24T09:40:31.430Z,26.39
2016-12-24T09:41:32.241Z,26.4
2016-12-24T09:42:31.805Z,26.45
2016-12-24T09:43:31.139Z,26.47
2016-12-24T09:44:31.776Z,26.43
2016-12-24T09:45:32.515Z,26.4
2016-12-24T09:46:31.841Z,26.35
2016-12-24T09:47:31.798Z,26.43
2016-12-24T09:48:31.591Z,26.51
2016-12-24T09:49:31.543Z,26.48
2016-12-24T09:50:31.553Z,26.43
2016-12-24T09:51:31.192Z,26.32
2016-12-24T09:52:32.077Z,26.39
2016-12-24T09:53:31.890Z,26.51
2016-12-24T09:54:33.520Z,26.48
2016-12-24T09:55:31.766Z,26.52
2016-12-24T09:56:31.981Z,26.47
2016-12-24T09:57:31.237Z,26.47
2016-12-24T09:58:46.436Z,26.45
2016-12-24T09:59:31.878Z,26.33
2016-12-24T10:00:31.573Z,26.5
2016-12-24T10:01:31.898Z,26.5
2016-12-24T10:02:31.644Z,26.5
2016-12-24T10:03:31.644Z,26.4
2016-12-24T10:04:31.606Z,26.45
2016-12-24T10:05:31.656Z,26.52
2016-12-24T10:06:31.303Z,26.44
2016-12-24T10:07:32.358Z,26.44
2016-12-24T10:08:31.631Z,26.44
2016-12-24T10:09:31.321Z,26.48
2016-12-24T10:10:31.331Z,26.51
2016-12-24T10:11:31.961Z,26.36
2016-12-24T10:12:31.707Z,26.45
2016-12-24T10:13:31.348Z,26.52
2016-12-24T10:14:31.361Z,26.47
2016-12-24T10:15:31.677Z,26.47
2016-12-24T10:16:33.359Z,26.51
2016-12-24T10:17:33.045Z,26.47
2016-12-24T10:18:32.162Z,26.47
2016-12-24T10:19:31.708Z,26.54
2016-12-24T10:20:31.713Z,26.47
2016-12-24T10:21:32.087Z,26.45
2016-12-24T10:22:32.092Z,26.51
2016-12-24T10:23:32.051Z,26.47
2016-12-24T10:24:31.480Z,26.55
2016-12-24T10:25:31.800Z,26.58
2016-12-24T10:26:31.492Z,26.57
2016-12-24T10:27:32.737Z,26.52
2016-12-24T10:28:32.088Z,26.6
2016-12-24T10:29:32.089Z,26.57
2016-12-24T10:30:31.838Z,26.45
2016-12-24T10:31:33.208Z,26.47
2016-12-24T10:32:32.217Z,26.52
2016-12-24T10:33:31.546Z,26.57
2016-12-24T10:34:32.128Z,26.55
2016-12-24T10:35:32.071Z,26.43
2016-12-24T10:36:32.140Z,26.52
2016-12-24T10:37:31.572Z,26.5
2016-12-24T10:38:32.641Z,26.44
2016-12-24T10:39:32.216Z,26.5
2016-12-24T10:40:32.176Z,26.5
2016-12-24T10:41:31.868Z,26.62
2016-12-24T10:42:33.056Z,26.6
2016-12-24T10:43:31.931Z,26.62
2016-12-24T10:44:32.385Z,26.63
2016-12-24T10:45:32.264Z,26.51
2016-12-24T10:46:32.258Z,26.5
2016-12-24T10:47:31.642Z,26.45
2016-12-24T10:48:32.281Z,26.52
2016-12-24T10:49:31.662Z,26.5
2016-12-24T10:50:31.614Z,26.51
2016-12-24T10:51:32.296Z,26.65
2016-12-24T10:52:31.631Z,26.63
2016-12-24T10:53:32.997Z,26.69
2016-12-24T10:54:32.425Z,26.65
2016-12-24T10:55:32.282Z,26.63
2016-12-24T10:56:32.336Z,26.63
2016-12-24T10:57:32.030Z,26.52
2016-12-24T10:58:32.298Z,26.52
2016-12-24T10:59:31.994Z,26.55
2016-12-24T11:00:32.049Z,26.62
2016-12-24T11:01:32.371Z,26.67
2016-12-24T11:02:32.063Z,26.8
2016-12-24T11:03:32.436Z,26.69
2016-12-24T11:04:33.157Z,26.63
2016-12-24T11:05:32.502Z,26.6
2016-12-24T11:06:32.354Z,26.5
2016-12-24T11:07:32.052Z,26.66
2016-12-24T11:08:32.406Z,26.55
2016-12-24T11:09:32.380Z,26.55
2016-12-24T11:10:32.388Z,26.63
2016-12-24T11:11:32.397Z,26.62
2016-12-24T11:12:32.086Z,26.7
2016-12-24T11:13:32.147Z,26.7
2016-12-24T11:14:32.155Z,26.65
2016-12-24T11:15:33.306Z,26.66
2016-12-24T11:16:32.132Z,26.6
2016-12-24T11:17:32.172Z,26.65
2016-12-24T11:18:32.495Z,26.65
2016-12-24T11:19:32.148Z,26.73
2016-12-24T11:20:32.248Z,26.67
2016-12-24T11:21:32.250Z,26.69
2016-12-24T11:22:32.213Z,26.63
2016-12-24T11:23:32.168Z,26.77
2016-12-24T11:24:32.272Z,26.65
2016-12-24T11:25:32.186Z,26.69
2016-12-24T11:26:33.405Z,26.63
2016-12-24T11:27:32.511Z,26.67
2016-12-24T11:28:32.312Z,26.69
2016-12-24T11:29:32.209Z,26.65
2016-12-24T11:30:32.265Z,26.69
2016-12-24T11:31:31.966Z,26.72
2016-12-24T11:32:32.592Z,26.69
2016-12-24T11:33:32.287Z,26.8
2016-12-24T11:34:32.299Z,26.73
2016-12-24T11:35:32.618Z,26.8
2016-12-24T11:36:32.573Z,26.81
2016-12-24T11:37:33.230Z,26.75
2016-12-24T11:38:31.966Z,26.73
2016-12-24T11:39:32.333Z,26.77
2016-12-24T11:40:32.656Z,26.75
2016-12-24T11:41:32.345Z,26.63
2016-12-24T11:42:32.305Z,26.73
2016-12-24T11:43:32.625Z,26.67
2016-12-24T11:44:32.357Z,26.66
2016-12-24T11:45:32.329Z,26.65
2016-12-24T11:46:32.431Z,26.73
2016-12-24T11:47:32.441Z,26.76
2016-12-24T11:48:33.163Z,26.76
2016-12-24T11:49:32.663Z,26.75
2016-12-24T11:50:32.726Z,26.7
2016-12-24T11:51:32.366Z,26.69
2016-12-24T11:52:32.160Z,26.63
2016-12-24T11:53:32.122Z,26.72
2016-12-24T11:54:32.748Z,26.67
2016-12-24T11:55:32.444Z,26.63
2016-12-24T11:56:32.813Z,26.7
2016-12-24T11:57:32.411Z,26.6
2016-12-24T11:58:32.468Z,26.47
2016-12-24T11:59:33.438Z,26.67
2016-12-24T12:00:32.751Z,26.63
2016-12-24T12:01:32.754Z,26.51
2016-12-24T12:02:32.503Z,26.57
2016-12-24T12:03:32.449Z,26.47
2016-12-24T12:04:32.196Z,26.58
2016-12-24T12:05:32.518Z,26.5
2016-12-24T12:06:32.785Z,26.69
2016-12-24T12:07:32.534Z,26.69
2016-12-24T12:08:32.635Z,26.63
2016-12-24T12:09:32.187Z,26.57
2016-12-24T12:10:33.366Z,26.63
2016-12-24T12:11:32.515Z,26.65
2016-12-24T12:12:32.514Z,26.67
2016-12-24T12:13:32.626Z,26.66
2016-12-24T12:14:32.268Z,26.73
2016-12-24T12:15:32.585Z,26.76
2016-12-24T12:16:32.859Z,26.84
2016-12-24T12:17:32.603Z,26.8
2016-12-24T12:18:32.877Z,26.69
2016-12-24T12:19:32.868Z,26.76
2016-12-24T12:20:32.621Z,26.84
2016-12-24T12:21:33.543Z,26.65
2016-12-24T12:22:32.909Z,26.69
2016-12-24T12:23:32.911Z,26.73
2016-12-24T12:24:32.918Z,26.66
2016-12-24T12:25:33.560Z,26.7
2016-12-24T12:26:32.980Z,26.65
2016-12-24T12:27:32.626Z,26.67
2016-12-24T12:28:32.680Z,26.72
2016-12-24T12:29:32.380Z,26.66
2016-12-24T12:30:33.055Z,26.7
2016-12-24T12:31:32.391Z,26.69
2016-12-24T12:32:32.973Z,26.65
2016-12-24T12:33:32.718Z,26.63
2016-12-24T12:34:32.988Z,26.73
2016-12-24T12:35:33.045Z,26.65
2016-12-24T12:36:34.041Z,26.6
2016-12-24T12:37:32.746Z,26.54
2016-12-24T12:38:32.704Z,26.66
2016-12-24T12:39:33.021Z,26.57
2016-12-24T12:40:32.867Z,26.66
2016-12-24T12:41:32.823Z,26.65
2016-12-24T12:42:32.424Z,26.66
2016-12-24T12:43:33.106Z,26.76
2016-12-24T12:44:32.795Z,26.67
2016-12-24T12:45:32.752Z,26.67
2016-12-24T12:46:32.809Z,26.76
2016-12-24T12:47:33.613Z,26.63
2016-12-24T12:48:32.826Z,26.66
2016-12-24T12:49:33.394Z,26.65
2016-12-24T12:50:33.098Z,26.67
2016-12-24T12:51:32.792Z,26.69
2016-12-24T12:52:33.168Z,26.63
2016-12-24T12:53:32.498Z,26.63
2016-12-24T12:54:32.817Z,26.66
2016-12-24T12:55:32.876Z,26.67
2016-12-24T12:56:33.143Z,26.73